createdAt,value
2022-10-01T00:01:20.259Z,14.99
2022-10-01T00:02:54.620Z,15.03
2022-10-01T00:04:27.240Z,15.04
2022-10-01T00:06:03.361Z,15.04
2022-10-01T00:07:39.271Z,15.02
2022-10-01T00:09:12.504Z,14.97
2022-10-01T00:10:45.663Z,14.87
2022-10-01T00:12:19.093Z,14.81
2022-10-01T00:13:53.959Z,14.79
2022-10-01T00:15:26.738Z,14.79
2022-10-01T00:17:00.205Z,14.76
2022-10-01T00:18:34.859Z,14.76
2022-10-01T00:20:14.177Z,14.78
2022-10-01T00:21:49.252Z,14.78
2022-10-01T00:23:22.551Z,14.75
2022-10-01T00:24:55.691Z,14.71
2022-10-01T00:26:30.556Z,14.68
2022-10-01T00:28:04.154Z,14.63
2022-10-01T00:29:37.758Z,14.57
2022-10-01T00:31:11.716Z,14.55
2022-10-01T00:32:45.259Z,14.55
2022-10-01T00:34:18.584Z,14.55
2022-10-01T00:35:55.476Z,14.53
2022-10-01T00:37:30.224Z,14.57
2022-10-01T00:39:03.621Z,14.57
2022-10-01T00:40:37.092Z,14.61
2022-10-01T00:42:19.499Z,14.66
2022-10-01T00:43:58.921Z,14.69
2022-10-01T00:45:32.343Z,14.66
2022-10-01T00:47:18.123Z,14.68
2022-10-01T00:48:58.280Z,14.62
2022-10-01T00:50:34.894Z,14.52
2022-10-01T00:52:43.889Z,14.47
2022-10-01T00:54:22.370Z,14.43
2022-10-01T00:55:58.197Z,14.41
2022-10-01T00:57:32.529Z,14.38
2022-10-01T00:59:06.464Z,14.36
2022-10-01T01:00:40.681Z,14.30
2022-10-01T01:02:13.397Z,14.14
2022-10-01T01:03:46.854Z,14.20
2022-10-01T01:05:20.719Z,14.15
2022-10-01T01:06:57.879Z,14.10
2022-10-01T01:08:32.631Z,14.10
2022-10-01T01:10:07.349Z,14.10
2022-10-01T01:11:47.515Z,14.11
2022-10-01T01:13:30.422Z,14.07
2022-10-01T01:15:11.949Z,14.06
2022-10-01T01:16:52.568Z,14.07
2022-10-01T01:18:31.743Z,14.03
2022-10-01T01:20:32.326Z,14.06
2022-10-01T01:22:07.901Z,14.10
2022-10-01T01:23:56.029Z,14.12
2022-10-01T01:25:40.684Z,14.11
2022-10-01T01:27:27.904Z,14.11
2022-10-01T01:29:06.928Z,14.12
2022-10-01T01:30:42.108Z,14.14
2022-10-01T01:32:19.562Z,14.16
2022-10-01T01:33:57.351Z,14.17
2022-10-01T01:35:35.194Z,14.16
2022-10-01T01:37:13.096Z,14.13
2022-10-01T01:38:49.140Z,14.01
2022-10-01T01:40:23.378Z,14.04
2022-10-01T01:42:01.150Z,14.03
2022-10-01T01:43:39.144Z,14.01
2022-10-01T01:45:18.777Z,14.02
2022-10-01T01:46:52.351Z,14.01
2022-10-01T01:48:26.108Z,13.99
2022-10-01T01:50:01.827Z,13.96
2022-10-01T01:51:39.742Z,13.98
2022-10-01T01:53:15.041Z,13.94
2022-10-01T01:54:51.443Z,13.93
2022-10-01T01:56:25.032Z,13.92
2022-10-01T01:57:58.737Z,13.88
2022-10-01T01:59:34.069Z,13.87
2022-10-01T02:01:10.086Z,13.88
2022-10-01T02:02:50.754Z,13.89
2022-10-01T02:04:27.190Z,13.85
2022-10-01T02:06:13.596Z,13.84
2022-10-01T02:08:21.976Z,13.81
2022-10-01T02:10:05.521Z,13.76
2022-10-01T02:11:45.659Z,13.68
2022-10-01T02:13:32.271Z,13.60
2022-10-01T02:15:10.924Z,13.60
2022-10-01T02:16:51.712Z,13.58
2022-10-01T02:18:30.323Z,13.58
2022-10-01T02:20:10.165Z,13.56
2022-10-01T02:21:53.521Z,13.53
2022-10-01T02:23:31.816Z,13.54
2022-10-01T02:25:07.751Z,13.53
2022-10-01T02:26:43.463Z,13.54
2022-10-01T02:28:19.936Z,13.56
2022-10-01T02:29:55.737Z,13.56
2022-10-01T02:31:30.917Z,13.60
2022-10-01T02:33:07.804Z,13.65
2022-10-01T02:34:42.571Z,13.68
2022-10-01T02:36:18.163Z,13.69
2022-10-01T02:37:54.179Z,13.66
2022-10-01T02:39:30.588Z,13.62
2022-10-01T02:41:07.441Z,13.57
2022-10-01T02:42:43.357Z,13.51
2022-10-01T02:44:23.048Z,13.45
2022-10-01T02:46:01.452Z,13.29
2022-10-01T02:47:38.268Z,13.32
2022-10-01T02:49:15.092Z,13.28
2022-10-01T02:50:52.070Z,13.27
2022-10-01T02:52:32.495Z,13.20
2022-10-01T02:54:12.424Z,13.20
2022-10-01T02:55:47.419Z,13.21
2022-10-01T02:57:24.145Z,13.17
2022-10-01T02:58:56.268Z,13.15
2022-10-01T03:00:29.792Z,13.14
2022-10-01T03:02:02.195Z,13.14
2022-10-01T03:03:35.752Z,13.16
2022-10-01T03:05:10.716Z,13.16
2022-10-01T03:06:42.936Z,13.18
2022-10-01T03:08:16.173Z,13.11
2022-10-01T03:09:49.608Z,12.99
2022-10-01T03:11:22.759Z,12.98
2022-10-01T03:12:56.357Z,12.96
2022-10-01T03:14:30.029Z,12.98
2022-10-01T03:16:03.550Z,12.96
2022-10-01T03:17:38.072Z,12.94
2022-10-01T03:19:10.425Z,12.91
2022-10-01T03:20:45.068Z,12.82
2022-10-01T03:22:22.623Z,12.74
2022-10-01T03:23:55.859Z,12.70
2022-10-01T03:25:29.530Z,12.65
2022-10-01T03:27:01.760Z,12.65
2022-10-01T03:28:35.258Z,12.64
2022-10-01T03:30:09.406Z,12.57
2022-10-01T03:31:42.732Z,12.66
2022-10-01T03:33:15.884Z,12.68
2022-10-01T03:34:48.446Z,12.67
2022-10-01T03:36:22.922Z,12.69
2022-10-01T03:37:55.175Z,12.71
2022-10-01T03:39:28.345Z,12.67
2022-10-01T03:41:01.740Z,12.75
2022-10-01T03:42:34.923Z,12.78
2022-10-01T03:44:07.320Z,12.80
2022-10-01T03:45:40.640Z,12.82
2022-10-01T03:47:13.923Z,12.84
2022-10-01T03:48:47.086Z,12.89
2022-10-01T03:50:22.275Z,12.94
2022-10-01T03:51:57.117Z,12.93
2022-10-01T03:53:31.407Z,12.98
2022-10-01T03:55:05.920Z,12.98
2022-10-01T03:56:41.192Z,12.95
2022-10-01T03:58:14.384Z,12.95
2022-10-01T03:59:47.746Z,12.88
2022-10-01T04:01:21.065Z,12.86
2022-10-01T04:02:54.292Z,12.79
2022-10-01T04:04:28.956Z,12.73
2022-10-01T04:06:02.220Z,12.72
2022-10-01T04:07:36.914Z,12.70
2022-10-01T04:09:10.979Z,12.66
2022-10-01T04:10:43.305Z,12.61
2022-10-01T04:12:16.569Z,12.61
2022-10-01T04:13:49.676Z,12.62
2022-10-01T04:15:23.483Z,12.65
2022-10-01T04:16:56.629Z,12.68
2022-10-01T04:18:29.924Z,12.71
2022-10-01T04:20:03.389Z,12.69
2022-10-01T04:21:37.335Z,12.64
2022-10-01T04:23:12.110Z,12.59
2022-10-01T04:24:45.430Z,12.56
2022-10-01T04:26:19.187Z,12.51
2022-10-01T04:27:57.589Z,12.48
2022-10-01T04:29:30.789Z,12.43
2022-10-01T04:31:22.515Z,12.36
2022-10-01T04:32:55.821Z,12.30
2022-10-01T04:34:52.630Z,12.37
2022-10-01T04:36:26.992Z,12.41
2022-10-01T04:38:03.459Z,12.43
2022-10-01T04:39:38.140Z,12.51
2022-10-01T04:41:11.325Z,12.54
2022-10-01T04:42:43.906Z,12.52
2022-10-01T04:44:16.996Z,12.54
2022-10-01T04:45:49.222Z,12.54
2022-10-01T04:47:22.515Z,12.54
2022-10-01T04:48:56.121Z,12.55
2022-10-01T04:50:29.430Z,12.63
2022-10-01T04:52:03.068Z,12.73
2022-10-01T04:53:36.396Z,12.79
2022-10-01T04:55:11.796Z,12.84
2022-10-01T04:56:44.935Z,12.94
2022-10-01T04:58:18.164Z,13.05
2022-10-01T04:59:51.496Z,13.20
2022-10-01T05:01:25.223Z,13.48
2022-10-01T05:02:58.549Z,13.80
2022-10-01T05:04:31.738Z,14.01
2022-10-01T05:06:05.080Z,14.22
2022-10-01T05:07:39.998Z,14.55
2022-10-01T05:09:13.158Z,14.79
2022-10-01T05:10:47.698Z,15.05
2022-10-01T05:12:24.404Z,15.29
2022-10-01T05:13:58.074Z,15.53
2022-10-01T05:15:31.955Z,15.72
2022-10-01T05:17:05.214Z,16.03
2022-10-01T05:18:39.405Z,16.26
2022-10-01T05:20:17.872Z,16.52
2022-10-01T05:21:51.967Z,16.89
2022-10-01T05:23:25.196Z,17.26
2022-10-01T05:24:59.394Z,17.51
2022-10-01T05:26:33.040Z,17.76
2022-10-01T05:28:06.292Z,17.92
2022-10-01T05:29:38.476Z,18.02
2022-10-01T05:31:13.138Z,18.18
2022-10-01T05:32:55.263Z,18.40
2022-10-01T05:34:28.723Z,18.54
2022-10-01T05:36:02.311Z,18.73
2022-10-01T05:37:36.342Z,18.76
2022-10-01T05:39:08.619Z,18.93
2022-10-01T05:40:45.940Z,18.94
2022-10-01T05:42:19.480Z,19.44
2022-10-01T05:43:53.165Z,19.67
2022-10-01T05:45:27.126Z,19.72
2022-10-01T05:47:00.370Z,19.70
2022-10-01T05:48:37.027Z,19.88
2022-10-01T05:50:11.152Z,20.17
2022-10-01T05:51:44.559Z,20.49
2022-10-01T05:53:17.728Z,20.24
2022-10-01T05:54:51.504Z,20.59
2022-10-01T05:56:24.786Z,20.49
2022-10-01T05:58:01.427Z,20.63
2022-10-01T05:59:34.727Z,20.76
2022-10-01T06:01:08.062Z,20.88
2022-10-01T06:02:41.682Z,21.02
2022-10-01T06:04:15.169Z,21.21
2022-10-01T06:05:48.409Z,21.36
2022-10-01T06:07:21.538Z,21.45
2022-10-01T06:08:55.463Z,21.54
2022-10-01T06:10:30.251Z,21.73
2022-10-01T06:12:03.599Z,21.86
2022-10-01T06:13:38.464Z,22.16
2022-10-01T06:15:12.803Z,22.28
2022-10-01T06:16:47.101Z,22.32
2022-10-01T06:18:19.305Z,22.48
2022-10-01T06:19:52.615Z,22.61
2022-10-01T06:21:26.635Z,22.87
2022-10-01T06:23:00.099Z,23.07
2022-10-01T06:24:33.364Z,23.17
2022-10-01T06:26:06.403Z,23.33
2022-10-01T06:27:39.822Z,23.32
2022-10-01T06:29:14.550Z,23.62
2022-10-01T06:30:47.883Z,23.69
2022-10-01T06:32:21.144Z,23.77
2022-10-01T06:33:54.334Z,23.45
2022-10-01T06:35:27.582Z,23.33
2022-10-01T06:37:00.866Z,22.98
2022-10-01T06:38:34.074Z,22.76
2022-10-01T06:40:07.510Z,22.99
2022-10-01T06:41:40.977Z,23.10
2022-10-01T06:43:17.492Z,23.00
2022-10-01T06:44:51.998Z,22.62
2022-10-01T06:46:25.286Z,22.11
2022-10-01T06:47:59.855Z,21.86
2022-10-01T06:49:32.997Z,21.55
2022-10-01T06:51:06.925Z,21.30
2022-10-01T06:52:51.018Z,21.11
2022-10-01T06:54:27.452Z,20.95
2022-10-01T06:56:05.426Z,20.74
2022-10-01T06:57:38.579Z,20.63
2022-10-01T06:59:11.833Z,20.52
2022-10-01T07:00:47.004Z,20.40
2022-10-01T07:02:29.019Z,20.21
2022-10-01T07:04:02.813Z,20.24
2022-10-01T07:05:36.237Z,20.27
2022-10-01T07:07:09.485Z,20.42
2022-10-01T07:08:42.660Z,20.52
2022-10-01T07:10:17.100Z,20.61
2022-10-01T07:11:50.389Z,20.70
2022-10-01T07:13:23.666Z,20.74
2022-10-01T07:14:56.818Z,20.76
2022-10-01T07:16:31.625Z,20.68
2022-10-01T07:18:05.460Z,20.62
2022-10-01T07:19:37.777Z,20.67
2022-10-01T07:21:10.991Z,20.67
2022-10-01T07:22:43.379Z,20.71
2022-10-01T07:24:16.603Z,20.69
2022-10-01T07:25:49.948Z,20.69
2022-10-01T07:27:23.153Z,20.77
2022-10-01T07:28:56.340Z,20.84
2022-10-01T07:30:29.511Z,20.87
2022-10-01T07:32:08.774Z,21.05
2022-10-01T07:33:42.634Z,21.14
2022-10-01T07:35:16.399Z,21.42
2022-10-01T07:36:50.561Z,21.95
2022-10-01T07:38:23.916Z,22.04
2022-10-01T07:39:57.332Z,22.33
2022-10-01T07:41:30.853Z,22.81
2022-10-01T07:43:04.205Z,23.38
2022-10-01T07:44:37.479Z,23.68
2022-10-01T07:46:10.898Z,24.07
2022-10-01T07:47:45.488Z,24.42
2022-10-01T07:49:18.695Z,24.67
2022-10-01T07:50:52.378Z,24.89
2022-10-01T07:52:25.550Z,25.05
2022-10-01T07:53:59.123Z,25.24
2022-10-01T07:55:32.901Z,25.39
2022-10-01T07:57:06.147Z,25.50
2022-10-01T07:58:39.374Z,25.83
2022-10-01T08:00:13.382Z,25.92
2022-10-01T08:01:49.823Z,25.81
2022-10-01T08:03:24.765Z,25.96
2022-10-01T08:05:15.570Z,25.86
2022-10-01T08:06:50.145Z,26.10
2022-10-01T08:08:23.636Z,26.59
2022-10-01T08:09:57.778Z,26.88
2022-10-01T08:11:31.684Z,26.98
2022-10-01T08:13:08.877Z,27.17
2022-10-01T08:14:42.445Z,27.46
2022-10-01T08:16:15.744Z,27.87
2022-10-01T08:17:49.010Z,28.17
2022-10-01T08:19:24.673Z,28.52
2022-10-01T08:20:57.979Z,28.73
2022-10-01T08:22:30.516Z,28.83
2022-10-01T08:24:03.919Z,29.01
2022-10-01T08:25:37.926Z,29.20
2022-10-01T08:27:11.596Z,29.34
2022-10-01T08:28:44.969Z,29.80
2022-10-01T08:30:18.167Z,29.82
2022-10-01T08:31:51.483Z,29.92
2022-10-01T08:33:25.254Z,29.95
2022-10-01T08:35:01.335Z,29.97
2022-10-01T08:36:35.807Z,29.95
2022-10-01T08:38:10.024Z,29.97
2022-10-01T08:39:43.206Z,30.05
2022-10-01T08:41:33.399Z,30.09
2022-10-01T08:43:08.545Z,30.29
2022-10-01T08:44:45.359Z,30.17
2022-10-01T08:46:22.047Z,29.95
2022-10-01T08:48:03.093Z,30.04
2022-10-01T08:49:41.387Z,30.28
2022-10-01T08:51:25.083Z,30.61
2022-10-01T08:53:05.786Z,30.93
2022-10-01T08:54:45.711Z,31.11
2022-10-01T08:56:22.944Z,31.34
2022-10-01T08:58:00.466Z,31.49
2022-10-01T08:59:40.724Z,31.40
2022-10-01T09:01:13.983Z,31.31
2022-10-01T09:02:48.779Z,31.26
2022-10-01T09:04:22.270Z,31.37
2022-10-01T09:06:13.692Z,31.25
2022-10-01T09:07:58.267Z,31.16
2022-10-01T09:09:43.327Z,30.98
2022-10-01T09:11:29.283Z,30.82
2022-10-01T09:13:22.027Z,30.63
2022-10-01T09:15:05.909Z,30.43
2022-10-01T09:16:48.689Z,30.24
2022-10-01T09:18:33.972Z,30.07
2022-10-01T09:20:19.719Z,29.77
2022-10-01T09:21:58.036Z,29.57
2022-10-01T09:23:39.561Z,29.48
2022-10-01T09:25:18.227Z,29.34
2022-10-01T09:26:51.660Z,29.32
2022-10-01T09:28:28.927Z,29.15
2022-10-01T09:30:05.462Z,28.98
2022-10-01T09:31:45.939Z,28.87
2022-10-01T09:33:21.407Z,28.74
2022-10-01T09:34:55.718Z,28.60
2022-10-01T09:36:36.407Z,28.45
2022-10-01T09:38:17.147Z,28.51
2022-10-01T09:40:02.976Z,28.54
2022-10-01T09:41:36.698Z,28.45
2022-10-01T09:43:12.720Z,28.43
2022-10-01T09:44:47.273Z,28.37
2022-10-01T09:46:28.030Z,28.43
2022-10-01T09:48:15.680Z,28.50
2022-10-01T09:49:50.883Z,28.57
2022-10-01T09:51:34.767Z,28.58
2022-10-01T09:53:17.192Z,28.48
2022-10-01T09:54:57.625Z,28.32
2022-10-01T09:56:36.668Z,28.34
2022-10-01T09:58:14.049Z,28.37
2022-10-01T09:59:54.299Z,28.40
2022-10-01T10:01:38.284Z,28.34
2022-10-01T10:03:22.839Z,28.42
2022-10-01T10:05:02.836Z,28.52
2022-10-01T10:06:36.791Z,28.62
2022-10-01T10:08:15.523Z,28.70
2022-10-01T10:09:48.782Z,28.51
2022-10-01T10:11:26.140Z,28.48
2022-10-01T10:13:02.842Z,28.51
2022-10-01T10:14:40.901Z,28.54
2022-10-01T10:16:20.620Z,28.63
2022-10-01T10:17:55.754Z,28.62
2022-10-01T10:19:31.044Z,28.64
2022-10-01T10:21:08.122Z,28.65
2022-10-01T10:22:41.278Z,28.55
2022-10-01T10:24:26.498Z,28.57
2022-10-01T10:26:02.785Z,28.58
2022-10-01T10:27:37.414Z,28.57
2022-10-01T10:29:27.945Z,28.61
2022-10-01T10:31:01.371Z,28.48
2022-10-01T10:32:34.625Z,28.35
2022-10-01T10:34:14.338Z,28.42
2022-10-01T10:35:48.116Z,28.50
2022-10-01T10:37:27.127Z,28.50
2022-10-01T10:39:01.128Z,28.52
2022-10-01T10:40:44.286Z,28.51
2022-10-01T10:42:18.856Z,28.41
2022-10-01T10:43:56.837Z,28.27
2022-10-01T10:45:35.697Z,28.16
2022-10-01T10:47:11.962Z,28.10
2022-10-01T10:48:45.521Z,27.99
2022-10-01T10:50:38.589Z,27.88
2022-10-01T10:52:23.733Z,27.83
2022-10-01T10:54:00.802Z,27.81
2022-10-01T10:55:34.024Z,27.82
2022-10-01T10:57:27.959Z,27.82
2022-10-01T10:59:09.344Z,27.80
2022-10-01T11:00:50.045Z,27.75
2022-10-01T11:02:25.494Z,27.71
2022-10-01T11:04:02.216Z,27.64
2022-10-01T11:05:43.049Z,27.60
2022-10-01T11:07:21.810Z,27.53
2022-10-01T11:09:01.532Z,27.51
2022-10-01T11:10:43.693Z,27.50
2022-10-01T11:12:30.227Z,27.47
2022-10-01T11:14:20.210Z,27.42
2022-10-01T11:16:08.888Z,27.37
2022-10-01T11:18:11.017Z,27.33
2022-10-01T11:19:59.623Z,27.22
2022-10-01T11:21:51.719Z,27.25
2022-10-01T11:23:47.646Z,27.25
2022-10-01T11:25:35.730Z,27.24
2022-10-01T11:27:17.127Z,27.29
2022-10-01T11:29:02.941Z,27.30
2022-10-01T11:30:45.092Z,27.34
2022-10-01T11:32:26.619Z,27.41
2022-10-01T11:34:21.168Z,27.48
2022-10-01T11:36:01.059Z,27.51
2022-10-01T11:37:50.610Z,27.57
2022-10-01T11:39:25.906Z,27.58
2022-10-01T11:41:07.854Z,27.68
2022-10-01T11:42:45.535Z,27.77
2022-10-01T11:44:28.556Z,27.84
2022-10-01T11:46:15.590Z,27.91
2022-10-01T11:47:53.029Z,28.01
2022-10-01T11:49:38.627Z,28.08
2022-10-01T11:51:15.603Z,28.13
2022-10-01T11:52:53.900Z,28.20
2022-10-01T11:54:32.507Z,28.28
2022-10-01T11:56:29.160Z,28.32
2022-10-01T11:58:26.385Z,28.32
2022-10-01T12:00:06.545Z,28.27
2022-10-01T12:01:52.850Z,28.27
2022-10-01T12:03:33.979Z,28.31
2022-10-01T12:05:11.425Z,28.28
2022-10-01T12:06:57.097Z,28.34
2022-10-01T12:08:36.717Z,28.38
2022-10-01T12:10:19.371Z,28.45
2022-10-01T12:12:01.519Z,28.52
2022-10-01T12:13:40.475Z,28.45
2022-10-01T12:15:19.074Z,28.39
2022-10-01T12:16:59.143Z,28.39
2022-10-01T12:18:38.278Z,28.39
2022-10-01T12:20:21.211Z,28.40
2022-10-01T12:21:58.619Z,28.34
2022-10-01T12:23:36.106Z,28.43
2022-10-01T12:25:13.348Z,28.44
2022-10-01T12:26:55.998Z,28.31
2022-10-01T12:28:36.398Z,28.37
2022-10-01T12:30:13.138Z,28.37
2022-10-01T12:31:53.651Z,28.44
2022-10-01T12:33:44.487Z,28.31
2022-10-01T12:35:35.792Z,28.33
2022-10-01T12:37:22.028Z,28.36
2022-10-01T12:39:10.398Z,28.40
2022-10-01T12:40:48.736Z,28.43
2022-10-01T12:42:40.643Z,28.42
2022-10-01T12:44:34.429Z,28.39
2022-10-01T12:46:18.017Z,28.43
2022-10-01T12:48:00.151Z,28.46
2022-10-01T12:49:42.889Z,28.51
2022-10-01T12:51:38.194Z,28.57
2022-10-01T12:53:22.591Z,28.60
2022-10-01T12:55:14.660Z,28.60
2022-10-01T12:56:55.598Z,28.64
2022-10-01T12:58:47.244Z,28.49
2022-10-01T13:00:23.040Z,28.36
2022-10-01T13:02:12.942Z,28.31
2022-10-01T13:04:19.108Z,28.21
2022-10-01T13:06:06.799Z,28.21
2022-10-01T13:07:51.070Z,28.20
2022-10-01T13:09:35.146Z,28.21
2022-10-01T13:11:20.677Z,28.26
2022-10-01T13:13:03.199Z,28.32
2022-10-01T13:14:37.230Z,28.36
2022-10-01T13:16:22.357Z,28.35
2022-10-01T13:18:02.056Z,28.29
2022-10-01T13:19:44.920Z,28.26
2022-10-01T13:21:26.737Z,28.26
2022-10-01T13:23:06.074Z,28.18
2022-10-01T13:24:44.742Z,28.16
2022-10-01T13:26:21.762Z,28.08
2022-10-01T13:28:01.657Z,27.99
2022-10-01T13:29:48.317Z,27.96
2022-10-01T13:31:35.344Z,27.89
2022-10-01T13:33:24.359Z,27.79
2022-10-01T13:34:59.892Z,27.72
2022-10-01T13:36:37.761Z,27.66
2022-10-01T13:38:16.456Z,27.62
2022-10-01T13:39:49.723Z,27.59
2022-10-01T13:41:27.207Z,27.56
2022-10-01T13:43:03.352Z,27.55
2022-10-01T13:44:37.811Z,27.58
2022-10-01T13:46:12.267Z,27.63
2022-10-01T13:47:45.599Z,27.66
2022-10-01T13:49:25.517Z,27.67
2022-10-01T13:51:03.650Z,27.72
2022-10-01T13:52:38.308Z,27.70
2022-10-01T13:54:22.414Z,27.70
2022-10-01T13:55:57.191Z,27.70
2022-10-01T13:57:34.200Z,27.63
2022-10-01T13:59:28.779Z,27.61
2022-10-01T14:01:05.528Z,27.62
2022-10-01T14:02:41.438Z,27.64
2022-10-01T14:04:24.875Z,27.69
2022-10-01T14:05:59.816Z,27.75
2022-10-01T14:07:38.262Z,27.79
2022-10-01T14:09:20.517Z,27.79
2022-10-01T14:11:16.514Z,27.79
2022-10-01T14:13:07.861Z,27.77
2022-10-01T14:15:00.877Z,27.75
2022-10-01T14:16:39.216Z,27.64
2022-10-01T14:18:18.163Z,27.52
2022-10-01T14:19:52.033Z,27.35
2022-10-01T14:21:41.604Z,27.17
2022-10-01T14:23:19.980Z,26.98
2022-10-01T14:25:16.477Z,26.87
2022-10-01T14:26:54.035Z,26.84
2022-10-01T14:28:53.682Z,26.81
2022-10-01T14:30:36.595Z,26.82
2022-10-01T14:32:24.181Z,26.82
2022-10-01T14:34:30.677Z,26.83
2022-10-01T14:36:11.271Z,26.85
2022-10-01T14:37:44.640Z,26.86
2022-10-01T14:39:20.269Z,26.86
2022-10-01T14:40:55.413Z,26.80
2022-10-01T14:42:28.600Z,26.80
2022-10-01T14:44:02.146Z,26.75
2022-10-01T14:45:35.843Z,26.74
2022-10-01T14:47:21.144Z,26.71
2022-10-01T14:49:00.028Z,26.59
2022-10-01T14:50:36.116Z,26.59
2022-10-01T14:52:20.396Z,26.58
2022-10-01T14:53:55.159Z,26.54
2022-10-01T14:55:30.507Z,26.51
2022-10-01T14:57:11.044Z,26.51
2022-10-01T14:58:48.608Z,26.48
2022-10-01T15:00:24.275Z,26.46
2022-10-01T15:02:18.767Z,26.43
2022-10-01T15:03:53.191Z,26.38
2022-10-01T15:05:30.442Z,26.28
2022-10-01T15:07:16.839Z,26.21
2022-10-01T15:08:51.752Z,26.11
2022-10-01T15:10:27.961Z,26.07
2022-10-01T15:12:01.703Z,26.02
2022-10-01T15:13:39.177Z,25.92
2022-10-01T15:15:20.816Z,25.89
2022-10-01T15:16:54.278Z,25.75
2022-10-01T15:18:28.085Z,25.76
2022-10-01T15:20:01.803Z,25.70
2022-10-01T15:21:38.920Z,25.66
2022-10-01T15:23:13.706Z,25.63
2022-10-01T15:24:49.465Z,25.61
2022-10-01T15:26:27.495Z,25.55
2022-10-01T15:28:01.124Z,25.49
2022-10-01T15:29:36.114Z,25.46
2022-10-01T15:31:09.351Z,25.42
2022-10-01T15:32:42.356Z,25.39
2022-10-01T15:34:18.001Z,25.35
2022-10-01T15:35:51.575Z,25.32
2022-10-01T15:37:33.176Z,25.25
2022-10-01T15:39:27.507Z,25.27
2022-10-01T15:41:26.642Z,25.12
2022-10-01T15:43:26.500Z,25.02
2022-10-01T15:45:27.946Z,24.90
2022-10-01T15:47:32.906Z,24.83
2022-10-01T15:49:20.246Z,24.75
2022-10-01T15:51:00.599Z,24.59
2022-10-01T15:52:53.199Z,24.54
2022-10-01T15:54:26.710Z,24.48
2022-10-01T15:56:01.807Z,24.41
2022-10-01T15:57:35.727Z,24.32
2022-10-01T15:59:16.829Z,24.21
2022-10-01T16:01:03.690Z,24.10
2022-10-01T16:02:37.210Z,24.15
2022-10-01T16:04:12.932Z,24.08
2022-10-01T16:05:48.792Z,24.03
2022-10-01T16:07:27.142Z,23.99
2022-10-01T16:09:05.233Z,23.94
2022-10-01T16:10:40.995Z,23.87
2022-10-01T16:12:22.783Z,23.84
2022-10-01T16:14:21.947Z,23.73
2022-10-01T16:16:18.266Z,23.71
2022-10-01T16:17:57.756Z,23.57
2022-10-01T16:19:32.566Z,23.50
2022-10-01T16:21:08.951Z,23.38
2022-10-01T16:22:42.187Z,23.34
2022-10-01T16:24:28.611Z,23.32
2022-10-01T16:26:02.411Z,23.30
2022-10-01T16:27:45.075Z,23.27
2022-10-01T16:29:24.820Z,23.26
2022-10-01T16:30:58.334Z,23.27
2022-10-01T16:32:33.082Z,23.23
2022-10-01T16:34:13.093Z,23.21
2022-10-01T16:35:49.426Z,23.17
2022-10-01T16:37:22.916Z,23.10
2022-10-01T16:38:56.372Z,23.03
2022-10-01T16:40:31.921Z,22.95
2022-10-01T16:42:23.293Z,22.83
2022-10-01T16:43:59.342Z,22.64
2022-10-01T16:45:36.230Z,22.58
2022-10-01T16:47:11.700Z,22.54
2022-10-01T16:48:48.067Z,22.50
2022-10-01T16:50:23.153Z,22.44
2022-10-01T16:51:56.563Z,22.37
2022-10-01T16:53:29.749Z,22.26
2022-10-01T16:55:02.944Z,22.23
2022-10-01T16:56:36.953Z,22.17
2022-10-01T16:58:10.921Z,22.10
2022-10-01T16:59:44.469Z,22.03
2022-10-01T17:01:17.651Z,22.04
2022-10-01T17:02:51.346Z,22.02
2022-10-01T17:04:29.259Z,22.00
2022-10-01T17:06:05.221Z,21.96
2022-10-01T17:07:38.741Z,21.91
2022-10-01T17:09:12.056Z,21.80
2022-10-01T17:10:46.647Z,21.80
2022-10-01T17:12:19.872Z,21.71
2022-10-01T17:13:52.975Z,21.59
2022-10-01T17:15:28.476Z,21.53
2022-10-01T17:17:01.956Z,21.48
2022-10-01T17:18:35.182Z,21.48
2022-10-01T17:20:10.672Z,21.47
2022-10-01T17:21:44.075Z,21.45
2022-10-01T17:23:20.006Z,21.46
2022-10-01T17:24:53.426Z,21.45
2022-10-01T17:26:26.673Z,21.47
2022-10-01T17:28:01.053Z,21.46
2022-10-01T17:29:34.316Z,21.39
2022-10-01T17:31:08.693Z,21.39
2022-10-01T17:32:43.153Z,21.40
2022-10-01T17:34:16.708Z,21.41
2022-10-01T17:35:54.592Z,21.39
2022-10-01T17:37:27.767Z,21.43
2022-10-01T17:39:01.031Z,21.41
2022-10-01T17:40:34.492Z,21.28
2022-10-01T17:42:07.732Z,21.19
2022-10-01T17:43:42.013Z,21.10
2022-10-01T17:45:15.858Z,20.98
2022-10-01T17:46:49.520Z,20.91
2022-10-01T17:48:22.808Z,20.85
2022-10-01T17:49:56.190Z,20.84
2022-10-01T17:51:32.234Z,20.82
2022-10-01T17:53:05.796Z,20.82
2022-10-01T17:54:39.251Z,20.84
2022-10-01T17:56:15.785Z,20.80
2022-10-01T17:57:48.994Z,20.80
2022-10-01T17:59:22.373Z,20.81
2022-10-01T18:00:57.481Z,20.81
2022-10-01T18:02:44.418Z,20.76
2022-10-01T18:04:17.757Z,20.75
2022-10-01T18:05:52.267Z,20.72
2022-10-01T18:07:27.147Z,20.68
2022-10-01T18:09:00.628Z,20.65
2022-10-01T18:10:34.007Z,20.65
2022-10-01T18:12:07.799Z,20.59
2022-10-01T18:13:41.421Z,20.49
2022-10-01T18:15:14.963Z,20.47
2022-10-01T18:16:48.218Z,20.47
2022-10-01T18:20:15.033Z,20.53
2022-10-01T18:21:48.780Z,20.52
2022-10-01T18:23:23.562Z,20.56
2022-10-01T18:24:56.783Z,20.56
2022-10-01T18:26:30.023Z,20.57
2022-10-01T18:28:03.262Z,20.53
2022-10-01T18:29:37.879Z,20.51
2022-10-01T18:31:18.973Z,20.52
2022-10-01T18:32:56.935Z,20.51
2022-10-01T18:34:36.277Z,20.51
2022-10-01T18:36:24.488Z,20.48
2022-10-01T18:38:02.580Z,20.43
2022-10-01T18:39:41.852Z,20.46
2022-10-01T18:41:27.262Z,20.46
2022-10-01T18:43:08.076Z,20.48
2022-10-01T18:44:41.282Z,20.46
2022-10-01T18:46:27.156Z,20.41
2022-10-01T18:48:21.055Z,20.41
2022-10-01T18:50:12.430Z,20.38
2022-10-01T18:51:56.458Z,20.34
2022-10-01T18:53:44.424Z,20.42
2022-10-01T18:55:34.614Z,20.38
2022-10-01T18:57:20.898Z,20.37
2022-10-01T18:59:13.103Z,20.40
2022-10-01T19:00:56.717Z,20.39
2022-10-01T19:02:48.099Z,20.40
2022-10-01T19:04:44.440Z,20.38
2022-10-01T19:06:58.918Z,20.30
2022-10-01T19:09:00.307Z,20.30
2022-10-01T19:10:40.916Z,20.31
2022-10-01T19:12:27.807Z,20.29
2022-10-01T19:14:18.086Z,20.29
2022-10-01T19:16:07.195Z,20.32
2022-10-01T19:17:50.224Z,20.31
2022-10-01T19:19:37.527Z,20.31
2022-10-01T19:21:24.343Z,20.29
2022-10-01T19:23:12.900Z,20.24
2022-10-01T19:25:01.616Z,20.20
2022-10-01T19:26:45.826Z,20.20
2022-10-01T19:28:35.672Z,20.21
2022-10-01T19:30:12.044Z,20.12
2022-10-01T19:31:53.917Z,20.07
2022-10-01T19:33:27.422Z,20.06
2022-10-01T19:35:07.246Z,20.07
2022-10-01T19:36:46.759Z,20.08
2022-10-01T19:38:25.325Z,20.08
2022-10-01T19:40:04.074Z,20.03
2022-10-01T19:41:43.435Z,20.07
2022-10-01T19:43:22.192Z,20.07
2022-10-01T19:45:01.525Z,20.06
2022-10-01T19:46:39.037Z,20.02
2022-10-01T19:48:20.558Z,20.02
2022-10-01T19:49:58.467Z,19.98
2022-10-01T19:51:36.185Z,19.98
2022-10-01T19:53:22.959Z,19.98
2022-10-01T19:55:00.334Z,19.97
2022-10-01T19:56:38.149Z,20.00
2022-10-01T19:58:18.287Z,19.98
2022-10-01T19:59:55.401Z,19.88
2022-10-01T20:01:35.577Z,19.87
2022-10-01T20:03:14.298Z,19.86
2022-10-01T20:04:51.860Z,19.83
2022-10-01T20:06:31.860Z,19.82
2022-10-01T20:08:16.078Z,19.80
2022-10-01T20:09:54.939Z,19.77
2022-10-01T20:11:31.959Z,19.76
2022-10-01T20:13:23.333Z,19.71
2022-10-01T20:15:11.696Z,19.70
2022-10-01T20:16:49.331Z,19.69
2022-10-01T20:18:29.388Z,19.69
2022-10-01T20:20:08.129Z,19.69
2022-10-01T20:21:47.614Z,19.73
2022-10-01T20:23:37.260Z,19.73
2022-10-01T20:25:24.139Z,19.74
2022-10-01T20:27:08.048Z,19.71
2022-10-01T20:28:52.997Z,19.68
2022-10-01T20:30:30.175Z,19.61
2022-10-01T20:32:15.216Z,19.59
2022-10-01T20:33:58.042Z,19.56
2022-10-01T20:35:36.687Z,19.52
2022-10-01T20:37:34.800Z,19.52
2022-10-01T20:39:17.343Z,19.53
2022-10-01T20:40:55.588Z,19.55
2022-10-01T20:42:35.185Z,19.57
2022-10-01T20:44:15.347Z,19.58
2022-10-01T20:45:52.628Z,19.54
2022-10-01T20:47:37.183Z,19.52
2022-10-01T20:49:19.325Z,19.54
2022-10-01T20:50:55.470Z,19.53
2022-10-01T20:52:34.622Z,19.54
2022-10-01T20:54:12.388Z,19.55
2022-10-01T20:55:50.113Z,19.59
2022-10-01T20:57:34.085Z,19.58
2022-10-01T20:59:13.335Z,19.59
2022-10-01T21:00:48.928Z,19.57
2022-10-01T21:02:29.970Z,19.54
2022-10-01T21:04:07.371Z,19.56
2022-10-01T21:05:44.409Z,19.54
2022-10-01T21:07:29.359Z,19.61
2022-10-01T21:09:10.553Z,19.88